createdAt,value
2023-02-12T00:01:13.318Z,3.00
2023-02-12T00:03:41.994Z,1.00
2023-02-12T00:06:10.847Z,1.00
2023-02-12T00:08:39.672Z,0.00
2023-02-12T00:11:16.144Z,0.00
2023-02-12T00:13:44.623Z,1.00
2023-02-12T00:16:15.759Z,1.00
2023-02-12T00:18:44.232Z,1.00
2023-02-12T00:21:12.992Z,3.00
2023-02-12T00:23:41.517Z,0.00
2023-02-12T00:26:14.255Z,1.00
2023-02-12T00:28:46.989Z,0.00
2023-02-12T00:31:17.520Z,0.00
2023-02-12T00:33:45.321Z,0.00
2023-02-12T00:36:25.837Z,3.00
2023-02-12T00:38:56.269Z,3.60
2023-02-12T00:41:26.076Z,1.00
2023-02-12T00:43:54.061Z,1.00
2023-02-12T00:46:22.172Z,1.00
2023-02-12T00:48:49.799Z,3.60
2023-02-12T00:51:20.624Z,3.60
2023-02-12T00:53:48.363Z,1.00
2023-02-12T00:56:16.075Z,1.00
2023-02-12T00:58:43.742Z,1.00
2023-02-12T01:01:11.537Z,1.00
2023-02-12T01:03:39.278Z,1.00
2023-02-12T01:06:07.260Z,1.00
2023-02-12T01:08:35.073Z,0.00
2023-02-12T01:11:05.192Z,1.80
2023-02-12T01:13:34.423Z,2.60
2023-02-12T01:16:15.226Z,6.00
2023-02-12T01:18:43.291Z,8.00
2023-02-12T01:21:19.461Z,5.75
2023-02-12T01:23:47.941Z,7.25
2023-02-12T01:26:17.870Z,6.00
2023-02-12T01:28:49.796Z,3.80
2023-02-12T01:31:21.319Z,8.00
2023-02-12T01:33:53.494Z,6.00
2023-02-12T01:36:21.703Z,3.00
2023-02-12T01:38:49.990Z,5.50
2023-02-12T01:41:30.513Z,7.00
2023-02-12T01:44:23.914Z,6.25
2023-02-12T01:46:57.428Z,5.00
2023-02-12T01:49:47.944Z,3.75
2023-02-12T01:52:28.736Z,6.25
2023-02-12T01:55:01.907Z,6.50
2023-02-12T01:57:34.715Z,5.20
2023-02-12T02:00:06.017Z,2.50
2023-02-12T02:02:45.447Z,5.75
2023-02-12T02:05:23.354Z,6.25
2023-02-12T02:07:50.985Z,3.75
2023-02-12T02:10:18.347Z,3.75
2023-02-12T02:13:04.531Z,3.00
2023-02-12T02:15:33.432Z,4.00
2023-02-12T02:18:15.900Z,3.00
2023-02-12T02:21:01.871Z,4.00
2023-02-12T02:23:35.233Z,4.50
2023-02-12T02:26:18.234Z,4.00
2023-02-12T02:29:23.301Z,6.00
2023-02-12T02:32:03.262Z,7.25
2023-02-12T02:34:59.178Z,6.00
2023-02-12T02:37:48.038Z,1.40
2023-02-12T02:40:23.027Z,2.60
2023-02-12T02:43:00.808Z,1.40
2023-02-12T02:45:38.595Z,3.00
2023-02-12T02:48:15.299Z,1.40
2023-02-12T02:50:48.111Z,3.00
2023-02-12T02:53:30.374Z,1.40
2023-02-12T02:56:02.350Z,0.00
2023-02-12T02:58:44.645Z,3.25
2023-02-12T03:01:27.090Z,0.00
2023-02-12T03:03:57.773Z,1.00
2023-02-12T03:06:45.306Z,2.60
2023-02-12T03:09:28.439Z,1.00
2023-02-12T03:12:03.604Z,2.00
2023-02-12T03:14:35.292Z,2.20
2023-02-12T03:17:23.057Z,0.00
2023-02-12T03:19:56.409Z,0.00
2023-02-12T03:22:31.946Z,1.00
2023-02-12T03:25:09.978Z,0.00
2023-02-12T03:27:44.547Z,1.50
2023-02-12T03:30:13.039Z,1.00
2023-02-12T03:33:00.296Z,0.25
2023-02-12T03:35:42.738Z,1.00
2023-02-12T03:38:35.887Z,0.00
2023-02-12T03:41:28.075Z,0.50
2023-02-12T03:44:23.167Z,0.75
2023-02-12T03:47:06.308Z,0.00
2023-02-12T03:50:10.306Z,0.75
2023-02-12T03:52:38.186Z,1.00
2023-02-12T03:55:06.663Z,0.25
2023-02-12T03:57:40.851Z,1.00
2023-02-12T04:00:28.895Z,0.00
2023-02-12T04:02:57.264Z,1.00
2023-02-12T04:05:28.179Z,0.75
2023-02-12T04:07:59.023Z,0.00
2023-02-12T04:10:38.975Z,2.50
2023-02-12T04:13:17.714Z,0.00
2023-02-12T04:16:07.266Z,0.00
2023-02-12T04:18:43.843Z,0.00
2023-02-12T04:21:41.568Z,0.00
2023-02-12T04:24:30.077Z,0.00
2023-02-12T04:27:12.626Z,0.00
2023-02-12T04:29:56.450Z,0.00
2023-02-12T04:32:41.905Z,0.00
2023-02-12T04:35:38.165Z,0.00
2023-02-12T04:38:28.952Z,0.00
2023-02-12T04:40:58.629Z,0.00
2023-02-12T04:43:32.795Z,0.00
2023-02-12T04:46:01.790Z,0.00
2023-02-12T04:48:29.178Z,0.25
2023-02-12T04:50:56.465Z,0.50
2023-02-12T04:53:23.681Z,0.00
2023-02-12T04:55:51.148Z,0.00
2023-02-12T04:58:18.835Z,0.00
2023-02-12T05:00:46.499Z,0.00
2023-02-12T05:03:14.045Z,0.00
2023-02-12T05:05:41.672Z,1.00
2023-02-12T05:08:08.893Z,0.00
2023-02-12T05:10:36.513Z,0.00
2023-02-12T05:13:03.781Z,0.50
2023-02-12T05:15:31.106Z,0.00
2023-02-12T05:17:58.389Z,0.00
2023-02-12T05:20:25.818Z,0.00
2023-02-12T05:22:54.198Z,0.00
2023-02-12T05:25:21.734Z,0.00
2023-02-12T05:27:48.979Z,0.00
2023-02-12T05:30:16.526Z,0.00
2023-02-12T05:32:43.708Z,0.00
2023-02-12T05:35:11.063Z,0.00
2023-02-12T05:37:38.376Z,0.00
2023-02-12T05:40:07.096Z,0.25
2023-02-12T05:42:34.500Z,0.00
2023-02-12T05:45:02.137Z,0.00
2023-02-12T05:47:29.550Z,0.00
2023-02-12T05:49:57.017Z,0.00
2023-02-12T05:52:24.465Z,0.00
2023-02-12T05:54:52.085Z,0.00
2023-02-12T05:57:19.481Z,0.00
2023-02-12T05:59:47.121Z,0.00
2023-02-12T06:02:14.718Z,0.50
2023-02-12T06:04:42.322Z,0.00
2023-02-12T06:07:10.073Z,0.00
2023-02-12T06:09:37.903Z,0.00
2023-02-12T06:12:05.666Z,0.00
2023-02-12T06:14:33.860Z,0.00
2023-02-12T06:17:01.616Z,0.50
2023-02-12T06:19:29.186Z,0.00
2023-02-12T06:21:56.691Z,0.60
2023-02-12T06:24:24.334Z,0.00
2023-02-12T06:26:52.471Z,0.00
2023-02-12T06:29:20.865Z,0.00
2023-02-12T06:31:49.241Z,0.80
2023-02-12T06:34:20.586Z,0.00
2023-02-12T06:36:48.586Z,0.00
2023-02-12T06:39:18.170Z,0.40
2023-02-12T06:41:46.062Z,0.00
2023-02-12T06:44:13.871Z,0.00
2023-02-12T06:46:41.507Z,0.00
2023-02-12T06:49:11.742Z,0.80
2023-02-12T06:51:41.549Z,1.00
2023-02-12T06:54:17.920Z,0.40
2023-02-12T06:56:45.765Z,0.80
2023-02-12T06:59:15.865Z,0.00
2023-02-12T07:01:43.768Z,0.80
2023-02-12T07:04:11.633Z,0.80
2023-02-12T07:06:39.092Z,0.00
2023-02-12T07:09:06.479Z,0.40
2023-02-12T07:11:38.148Z,0.20
2023-02-12T07:14:06.744Z,1.00
2023-02-12T07:16:34.199Z,0.40
2023-02-12T07:19:01.578Z,1.00
2023-02-12T07:21:29.027Z,1.00
2023-02-12T07:23:56.454Z,1.00
2023-02-12T07:26:24.117Z,1.00
2023-02-12T07:28:52.733Z,1.00
2023-02-12T07:31:23.538Z,1.00
2023-02-12T07:33:55.736Z,1.00
2023-02-12T07:36:24.493Z,1.00
2023-02-12T07:38:52.274Z,0.00
2023-02-12T07:41:34.289Z,0.80
2023-02-12T07:44:07.149Z,0.20
2023-02-12T07:46:37.870Z,0.00
2023-02-12T07:49:07.390Z,1.00
2023-02-12T07:51:35.831Z,1.00
2023-02-12T07:54:04.030Z,1.00
2023-02-12T07:56:35.509Z,0.20
2023-02-12T07:59:07.312Z,0.00
2023-02-12T08:01:49.917Z,0.60
2023-02-12T08:04:24.378Z,1.00
2023-02-12T08:06:54.696Z,1.00
2023-02-12T08:09:28.091Z,0.00
2023-02-12T08:11:56.046Z,0.20
2023-02-12T08:14:24.000Z,0.20
2023-02-12T08:16:51.917Z,1.00
2023-02-12T08:19:23.931Z,2.00
2023-02-12T08:21:54.843Z,0.00
2023-02-12T08:24:23.146Z,1.40
2023-02-12T08:26:51.169Z,0.40
2023-02-12T08:29:22.365Z,0.40
2023-02-12T08:31:55.138Z,0.80
2023-02-12T08:34:25.471Z,0.80
2023-02-12T08:36:54.595Z,0.00
2023-02-12T08:39:23.395Z,0.20
2023-02-12T08:41:52.347Z,0.80
2023-02-12T08:44:19.963Z,1.00
2023-02-12T08:46:50.520Z,0.00
2023-02-12T08:49:26.677Z,2.20
2023-02-12T08:51:56.700Z,1.20
2023-02-12T08:54:26.926Z,0.00
2023-02-12T08:56:59.137Z,0.00
2023-02-12T08:59:27.223Z,0.00
2023-02-12T09:01:55.303Z,0.80
2023-02-12T09:04:25.443Z,0.60
2023-02-12T09:06:54.637Z,0.80
2023-02-12T09:09:22.470Z,1.20
2023-02-12T09:11:50.106Z,0.60
2023-02-12T09:14:24.285Z,0.00
2023-02-12T09:16:55.337Z,0.60
2023-02-12T09:19:23.293Z,0.00
2023-02-12T09:21:56.608Z,0.20
2023-02-12T09:24:25.727Z,1.00
2023-02-12T09:26:53.379Z,1.00
2023-02-12T09:29:20.687Z,0.20
2023-02-12T09:31:48.277Z,1.20
2023-02-12T09:34:15.988Z,0.00
2023-02-12T09:36:43.355Z,0.40
2023-02-12T09:39:10.899Z,0.00
2023-02-12T09:42:18.183Z,0.00
2023-02-12T09:45:00.800Z,0.40
2023-02-12T09:47:33.393Z,0.00
2023-02-12T09:50:13.980Z,0.20
2023-02-12T09:52:41.981Z,0.40
2023-02-12T09:55:16.666Z,0.00
2023-02-12T09:57:45.135Z,1.00
2023-02-12T10:00:29.060Z,0.00
2023-02-12T10:02:56.531Z,0.00
2023-02-12T10:05:29.003Z,1.00
2023-02-12T10:08:05.348Z,0.00
2023-02-12T10:11:10.430Z,0.00
2023-02-12T10:14:09.129Z,1.00
2023-02-12T10:16:59.748Z,0.60
2023-02-12T10:19:34.327Z,1.40
2023-02-12T10:22:22.465Z,1.00
2023-02-12T10:25:12.945Z,0.60
2023-02-12T10:27:51.227Z,0.00
2023-02-12T10:30:24.794Z,1.00
2023-02-12T10:32:59.648Z,0.80
2023-02-12T10:35:27.987Z,0.00
2023-02-12T10:38:08.520Z,0.00
2023-02-12T10:40:39.458Z,0.00
2023-02-12T10:43:09.021Z,0.00
2023-02-12T10:45:42.782Z,0.80
2023-02-12T10:48:13.949Z,0.60
2023-02-12T10:50:50.110Z,1.00
2023-02-12T10:53:25.499Z,0.80
2023-02-12T10:56:07.593Z,0.00
2023-02-12T10:58:35.078Z,1.00
2023-02-12T11:01:04.348Z,1.00
2023-02-12T11:03:38.385Z,0.00
2023-02-12T11:06:24.108Z,0.00
2023-02-12T11:08:52.594Z,0.00
2023-02-12T11:11:28.141Z,0.00
2023-02-12T11:13:58.598Z,0.00
2023-02-12T11:16:33.430Z,0.00
2023-02-12T11:19:06.950Z,1.20
2023-02-12T11:21:36.157Z,1.80
2023-02-12T11:24:26.952Z,0.00
2023-02-12T11:27:13.504Z,0.00
2023-02-12T11:29:42.659Z,0.00
2023-02-12T11:32:18.598Z,0.40
2023-02-12T11:35:06.841Z,1.00
2023-02-12T11:37:39.882Z,0.00
2023-02-12T11:40:16.744Z,0.00
2023-02-12T11:43:06.183Z,0.60
2023-02-12T11:45:48.354Z,0.00
2023-02-12T11:48:20.992Z,0.00
2023-02-12T11:50:50.925Z,0.00
2023-02-12T11:53:43.160Z,0.00
2023-02-12T11:56:15.431Z,0.60
2023-02-12T11:58:43.198Z,1.00
2023-02-12T12:01:19.132Z,1.00
2023-02-12T12:03:56.587Z,0.00
2023-02-12T12:06:33.846Z,0.60
2023-02-12T12:09:14.783Z,1.60
2023-02-12T12:12:00.323Z,0.80
2023-02-12T12:14:59.898Z,1.00
2023-02-12T12:18:08.526Z,0.00
2023-02-12T12:20:53.364Z,0.00
2023-02-12T12:23:37.637Z,1.00
2023-02-12T12:26:16.519Z,1.00
2023-02-12T12:28:52.956Z,1.00
2023-02-12T12:31:34.234Z,1.00
2023-02-12T12:34:19.197Z,1.00
2023-02-12T12:37:12.600Z,1.00
2023-02-12T12:40:33.698Z,0.80
2023-02-12T12:43:21.019Z,0.00
2023-02-12T12:46:08.655Z,0.00
2023-02-12T12:48:53.909Z,0.00
2023-02-12T12:51:41.044Z,0.00
2023-02-12T12:54:08.323Z,1.00
2023-02-12T12:56:51.983Z,1.00
2023-02-12T12:59:39.750Z,0.80
2023-02-12T13:02:34.403Z,0.60
2023-02-12T13:05:07.738Z,0.20
2023-02-12T13:08:14.305Z,0.00
2023-02-12T13:10:51.293Z,1.00
2023-02-12T13:13:26.938Z,0.20
2023-02-12T13:15:58.387Z,0.00
2023-02-12T13:18:41.222Z,0.00
2023-02-12T13:21:30.190Z,0.00
2023-02-12T13:24:00.331Z,0.80
2023-02-12T13:26:53.224Z,0.20
2023-02-12T13:29:26.728Z,1.00
2023-02-12T13:32:04.533Z,1.00
2023-02-12T13:34:36.087Z,1.60
2023-02-12T13:37:07.625Z,0.00
2023-02-12T13:39:46.219Z,0.60
2023-02-12T13:42:21.192Z,0.00
2023-02-12T13:45:04.706Z,1.00
2023-02-12T13:47:44.406Z,0.80
2023-02-12T13:50:18.082Z,0.80
2023-02-12T13:52:55.141Z,1.20
2023-02-12T13:55:42.016Z,1.20
2023-02-12T13:58:40.227Z,0.80
2023-02-12T14:01:13.461Z,3.00
2023-02-12T14:03:41.603Z,2.20
2023-02-12T14:06:14.725Z,1.00
2023-02-12T14:08:52.983Z,0.00
2023-02-12T14:11:24.925Z,1.00
2023-02-12T14:13:56.730Z,0.00
2023-02-12T14:16:30.192Z,0.20
2023-02-12T14:19:35.344Z,0.00
2023-02-12T14:22:10.734Z,0.00
2023-02-12T14:24:38.199Z,0.00
2023-02-12T14:27:19.602Z,0.00
2023-02-12T14:30:08.276Z,0.00
2023-02-12T14:32:53.592Z,0.60
2023-02-12T14:35:27.041Z,0.40
2023-02-12T14:38:15.501Z,1.00
2023-02-12T14:40:47.398Z,1.00
2023-02-12T14:43:54.725Z,0.20
2023-02-12T14:46:25.369Z,1.20
2023-02-12T14:49:06.326Z,2.80
2023-02-12T14:51:45.538Z,1.00
2023-02-12T14:54:30.025Z,0.60
2023-02-12T14:57:01.894Z,0.60
2023-02-12T14:59:34.125Z,0.80
2023-02-12T15:02:04.959Z,0.80
2023-02-12T15:04:37.443Z,0.80
2023-02-12T15:07:13.393Z,2.80
2023-02-12T15:09:50.875Z,0.00
2023-02-12T15:12:27.572Z,1.00
2023-02-12T15:15:09.010Z,0.20
2023-02-12T15:17:41.100Z,1.00
2023-02-12T15:20:25.419Z,1.00
2023-02-12T15:22:53.233Z,0.40
2023-02-12T15:25:27.924Z,1.00
2023-02-12T15:28:03.064Z,0.00
2023-02-12T15:30:34.685Z,1.00
2023-02-12T15:33:06.727Z,0.00
2023-02-12T15:35:37.380Z,3.00
2023-02-12T15:38:08.169Z,1.00
2023-02-12T15:40:35.923Z,0.40
2023-02-12T15:43:07.853Z,0.00
2023-02-12T15:45:36.937Z,1.00
2023-02-12T15:48:10.536Z,2.20
2023-02-12T15:50:58.321Z,0.60
2023-02-12T15:53:30.645Z,2.20
2023-02-12T15:56:00.497Z,0.40
2023-02-12T15:58:29.658Z,1.80
2023-02-12T16:01:04.813Z,1.00
2023-02-12T16:03:38.195Z,1.00
2023-02-12T16:06:11.846Z,1.40
2023-02-12T16:08:46.745Z,3.00
2023-02-12T16:11:20.193Z,0.40
2023-02-12T16:13:54.415Z,1.00
2023-02-12T16:16:24.941Z,0.80
2023-02-12T16:19:25.560Z,0.40
2023-02-12T16:22:15.306Z,0.80
2023-02-12T16:24:58.706Z,1.40
2023-02-12T16:27:35.115Z,1.00
2023-02-12T16:30:07.041Z,0.60
2023-02-12T16:32:43.571Z,2.40
2023-02-12T16:35:11.344Z,1.00
2023-02-12T16:37:38.888Z,1.00
2023-02-12T16:40:22.102Z,0.60
2023-02-12T16:42:49.682Z,0.00
2023-02-12T16:45:41.454Z,0.00
2023-02-12T16:48:09.109Z,0.20
2023-02-12T16:50:43.883Z,0.00
2023-02-12T16:53:43.922Z,3.00
2023-02-12T16:56:18.448Z,0.40
2023-02-12T16:58:49.031Z,1.40
2023-02-12T17:01:19.809Z,1.00
2023-02-12T17:03:50.662Z,1.00
2023-02-12T17:06:26.019Z,0.40
2023-02-12T17:08:53.743Z,1.40
2023-02-12T17:11:23.348Z,1.80
2023-02-12T17:13:52.551Z,0.60
2023-02-12T17:16:30.933Z,0.80
2023-02-12T17:19:00.211Z,1.00
2023-02-12T17:21:43.511Z,1.60
2023-02-12T17:24:37.408Z,1.40
2023-02-12T17:27:05.132Z,1.00
2023-02-12T17:29:32.610Z,0.60
2023-02-12T17:32:00.307Z,2.20
2023-02-12T17:34:30.201Z,1.00
2023-02-12T17:36:59.523Z,3.00
2023-02-12T17:39:27.000Z,3.00
2023-02-12T17:41:54.542Z,3.00
2023-02-12T17:44:21.986Z,1.40
2023-02-12T17:46:49.554Z,2.40
2023-02-12T17:49:17.069Z,3.40
2023-02-12T17:51:44.763Z,1.00
2023-02-12T17:54:12.636Z,2.40
2023-02-12T17:56:40.007Z,1.00
2023-02-12T17:59:07.592Z,1.80
2023-02-12T18:01:36.287Z,1.40
2023-02-12T18:04:03.836Z,1.80
2023-02-12T18:06:32.342Z,2.40
2023-02-12T18:09:02.024Z,1.00
2023-02-12T18:11:30.829Z,1.20
2023-02-12T18:13:59.211Z,0.80
2023-02-12T18:16:31.209Z,1.00
2023-02-12T18:19:01.017Z,2.00
2023-02-12T18:21:28.644Z,8.20
2023-02-12T18:23:56.323Z,1.00
2023-02-12T18:26:24.567Z,1.60
2023-02-12T18:28:54.050Z,6.20
2023-02-12T18:31:21.860Z,0.80
2023-02-12T18:33:59.365Z,4.00
2023-02-12T18:36:31.116Z,1.00
2023-02-12T18:39:01.513Z,4.40
2023-02-12T18:41:31.554Z,2.80
2023-02-12T18:43:59.854Z,4.20
2023-02-12T18:46:30.424Z,3.20
2023-02-12T18:48:58.950Z,2.20
2023-02-12T18:51:29.635Z,3.60
2023-02-12T18:54:01.569Z,1.00
2023-02-12T18:56:31.440Z,6.20
2023-02-12T18:59:00.909Z,2.00
2023-02-12T19:01:29.123Z,6.20
2023-02-12T19:04:00.365Z,5.00
2023-02-12T19:06:29.125Z,2.40
2023-02-12T19:09:05.242Z,2.80
2023-02-12T19:11:32.870Z,3.20
2023-02-12T19:14:00.349Z,2.40
2023-02-12T19:16:28.385Z,5.00
2023-02-12T19:18:59.247Z,4.00
2023-02-12T19:21:27.201Z,6.20
2023-02-12T19:23:58.378Z,4.20
2023-02-12T19:26:28.303Z,4.00
2023-02-12T19:28:57.065Z,5.00
2023-02-12T19:31:29.779Z,4.00
2023-02-12T19:34:00.591Z,4.60
2023-02-12T19:36:31.082Z,4.00
2023-02-12T19:38:59.975Z,4.00
2023-02-12T19:41:29.347Z,5.00
2023-02-12T19:44:00.756Z,2.00
2023-02-12T19:46:31.007Z,4.40
2023-02-12T19:49:00.954Z,4.20
2023-02-12T19:51:30.356Z,2.00
2023-02-12T19:54:07.475Z,2.00
2023-02-12T19:56:35.796Z,4.00
2023-02-12T19:59:04.796Z,4.00
2023-02-12T20:01:33.771Z,5.80
2023-02-12T20:04:01.415Z,3.60
2023-02-12T20:06:34.477Z,4.00
2023-02-12T20:09:02.879Z,4.00
2023-02-12T20:11:32.595Z,2.80
2023-02-12T20:14:02.263Z,1.80
2023-02-12T20:16:37.538Z,4.40
2023-02-12T20:19:22.279Z,1.00
2023-02-12T20:21:55.398Z,0.60
2023-02-12T20:24:27.593Z,2.80
2023-02-12T20:26:55.804Z,1.00
2023-02-12T20:29:24.027Z,7.00
2023-02-12T20:31:52.174Z,2.00
2023-02-12T20:34:20.624Z,2.40
2023-02-12T20:36:49.088Z,1.00
2023-02-12T20:39:18.688Z,2.80
2023-02-12T20:41:46.588Z,1.00
2023-02-12T20:44:17.240Z,3.00
2023-02-12T20:46:46.065Z,2.40
2023-02-12T20:49:15.296Z,1.80
2023-02-12T20:51:43.550Z,4.00
2023-02-12T20:54:11.663Z,1.40
2023-02-12T20:56:39.744Z,1.40
2023-02-12T20:59:08.055Z,2.80
2023-02-12T21:01:38.899Z,1.60
2023-02-12T21:04:12.765Z,1.00
2023-02-12T21:06:44.985Z,1.00
2023-02-12T21:09:14.372Z,0.60
2023-02-12T21:11:43.193Z,3.60
2023-02-12T21:14:26.788Z,3.20
2023-02-12T21:16:56.333Z,2.00
2023-02-12T21:19:24.993Z,6.60
2023-02-12T21:21:52.865Z,0.40
2023-02-12T21:24:24.152Z,2.60
2023-02-12T21:26:53.425Z,1.00
2023-02-12T21:29:22.048Z,1.20
2023-02-12T21:31:51.671Z,0.80
2023-02-12T21:34:22.665Z,0.80
2023-02-12T21:36:53.018Z,0.20
2023-02-12T21:39:27.993Z,0.60
2023-02-12T21:42:02.617Z,0.80
2023-02-12T21:44:33.174Z,1.00
2023-02-12T21:47:00.812Z,1.20
2023-02-12T21:49:29.008Z,1.20
2023-02-12T21:51:59.463Z,1.00
2023-02-12T21:54:27.230Z,2.00
2023-02-12T21:56:55.533Z,0.20
2023-02-12T21:59:24.952Z,1.00
2023-02-12T22:01:55.610Z,1.20
2023-02-12T22:04:23.461Z,0.40
2023-02-12T22:06:52.890Z,0.80
2023-02-12T22:09:24.473Z,0.00
2023-02-12T22:11:52.926Z,1.20
2023-02-12T22:14:21.657Z,0.20
2023-02-12T22:16:49.534Z,1.00
2023-02-12T22:19:17.290Z,0.60
2023-02-12T22:21:45.066Z,0.00
2023-02-12T22:24:15.428Z,1.40
2023-02-12T22:26:43.892Z,1.00
2023-02-12T22:29:15.375Z,0.60
2023-02-12T22:31:44.917Z,1.80
2023-02-12T22:34:16.074Z,0.40
2023-02-12T22:36:44.144Z,0.20
2023-02-12T22:39:13.316Z,1.00
2023-02-12T22:41:42.424Z,0.40
2023-02-12T22:44:12.720Z,0.60
2023-02-12T22:46:41.833Z,0.40
2023-02-12T22:49:09.716Z,1.60
2023-02-12T22:51:39.801Z,0.80
2023-02-12T22:54:08.769Z,0.00
2023-02-12T22:56:36.328Z,0.60
2023-02-12T22:59:03.924Z,1.80
2023-02-12T23:01:33.322Z,1.00
2023-02-12T23:04:00.760Z,1.00
2023-02-12T23:06:30.403Z,1.00
2023-02-12T23:09:01.697Z,1.00
2023-02-12T23:11:31.488Z,1.20
2023-02-12T23:14:00.002Z,1.80
2023-02-12T23:16:27.500Z,0.60
2023-02-12T23:19:00.282Z,0.20
2023-02-12T23:21:29.647Z,0.60
2023-02-12T23:23:59.345Z,1.40
2023-02-12T23:26:28.002Z,1.80
2023-02-12T23:28:56.125Z,1.00
2023-02-12T23:31:24.250Z,0.60
2023-02-12T23:33:52.146Z,1.00
2023-02-12T23:36:19.794Z,0.80
2023-02-12T23:38:47.304Z,0.00
2023-02-12T23:41:15.071Z,0.00
2023-02-12T23:43:42.406Z,1.00
2023-02-12T23:46:10.002Z,0.60
2023-02-12T23:48:37.755Z,0.40
2023-02-12T23:51:05.689Z,0.20
2023-02-12T23:53:33.078Z,1.00
2023-02-12T23:56:00.632Z,0.80
2023-02-12T23:58:28.309Z,0.60
